Aviation Digital Data Service (ADDS)

Output produced by TAFs form (0925 UTC 19 April 2015)
found at http://aviationweather.gov/adds/tafs/
 
KTCC 190520Z 1906/2006 36010KT P6SM FEW110 
     FM191400 36023G33KT P6SM FEW050 
     FM192000 03012KT P6SM FEW060 
     FM200000 08007KT P6SM SCT080 
     FM200300 08010KT P6SM BKN080